High temp

Not for real navigation. The accuracy of this data is not assured See disclaimer for more information



ICAO NAME COUNTRY WIND Kt GUST Kt VIS m TEMP/DEW C BARO METAR
DAUT Timimoun Algeria 2 0 9999 38/3 29.88 DAUT 221900Z VRB02KT CAVOK 38/03 Q1012
KATT CAMP MABRY/AUSTIN CITY ASOS TX United States 4 0 16000 37/18 29.97 KATT 221951Z AUTO VRB04KT 10SM FEW055 37/18 A2997 RMK AO2 SLP132 T03720178
DAUA Adrar Algeria 5 0 9999 37/0 29.88 DAUA 221900Z 30005KT CAVOK 37/// Q1012
OEAO 10 0 9999 37/-1 29.85 OEAO 221900Z 30010KT CAVOK 37/M01 Q1011
SBIZ Imperatriz Brazil 2 0 9999 37/20 29.80 SBIZ 221900Z 06002KT 9999 SCT030 37/20 Q1009

Show more